30.7°F
Current conditions from King Hill
Updated every 5 minutes
 
  Saturday November 1, 2014

Station Historical Data
Daily Summary for June 22, 2012 Units:  Both    English   Metric
« Previous Day
Next Day »
Daily Weekly Monthly Yearly Custom
  High: Low: Average:
Temperature: 80.8 °F /  27.1 °C 64.8 °F /  18.2 °C 73.1 °F /  22.8 °C
Dew Point: 67.0 °F /  19.4 °C 57.3 °F /  14.1 °C 61.8 °F /  16.6 °C
Humidity: 85% 51% 68%
Wind Speed: 8.0mph /  12.9km/h - 3mph /  4.8km/h
Wind Gust: 15.0mph /  24.1km/h - -
Wind- - WNW
Pressure: 29.77 in /  1008 hPa 29.66 in /  1004.3 hPa -
Precipitation: 0.00 in /  0 mm    
Historical Graphs
 
 
Tabular Data for June 22, 2012
Time Temperature Dew Point Pressure Wind Wind Speed Wind Gust Humidity Daily Rainfall
00:04 75.8 °F /  24.3 °C 62.3 °F /  16.8 °C 29.68in /  1005hPa Calm   4.0mph /  6.4km/h 63% 0.00in /  0mm
00:09 75.2 °F /  24 °C 61.8 °F /  16.6 °C 29.68in /  1005hPa Calm   7.0mph /  11.3km/h 63% 0.00in /  0mm
00:14 74.9 °F /  23.8 °C 61.9 °F /  16.6 °C 29.68in /  1005hPa Calm   7.0mph /  11.3km/h 64% 0.00in /  0mm
00:19 74.4 °F /  23.6 °C 62.3 °F /  16.8 °C 29.68in /  1005hPa Calm   1.0mph /  1.6km/h 66% 0.00in /  0mm
00:24 74.0 °F /  23.3 °C 61.9 °F /  16.6 °C 29.68in /  1005hPa Calm   6.0mph /  9.7km/h 66% 0.00in /  0mm
00:29 73.8 °F /  23.2 °C 61.3 °F /  16.3 °C 29.68in /  1005hPa WSW 1.0mph /  1.6km/h 6.0mph /  9.7km/h 65% 0.00in /  0mm
00:34 73.9 °F /  23.3 °C 61.4 °F /  16.3 °C 29.68in /  1005hPa Calm   4.0mph /  6.4km/h 65% 0.00in /  0mm
00:39 74.1 °F /  23.4 °C 61.6 °F /  16.4 °C 29.68in /  1005hPa WSW 1.0mph /  1.6km/h 10.0mph /  16.1km/h 65% 0.00in /  0mm
00:44 74.5 °F /  23.6 °C 61.5 °F /  16.4 °C 29.68in /  1005hPa Calm   10.0mph /  16.1km/h 64% 0.00in /  0mm
00:49 74.8 °F /  23.8 °C 61.8 °F /  16.6 °C 29.68in /  1005hPa Calm   5.0mph /  8km/h 64% 0.00in /  0mm
00:54 74.8 °F /  23.8 °C 61.8 °F /  16.6 °C 29.67in /  1004.6hPa Calm   4.0mph /  6.4km/h 64% 0.00in /  0mm
00:59 74.8 °F /  23.8 °C 61.8 °F /  16.6 °C 29.67in /  1004.6hPa SW 2.0mph /  3.2km/h 6.0mph /  9.7km/h 64% 0.00in /  0mm
01:04 74.9 °F /  23.8 °C 61.5 °F /  16.4 °C 29.67in /  1004.6hPa Calm   6.0mph /  9.7km/h 63% 0.00in /  0mm
01:09 74.9 °F /  23.8 °C 61.5 °F /  16.4 °C 29.67in /  1004.6hPa Calm   1.0mph /  1.6km/h 63% 0.00in /  0mm
01:14 74.8 °F /  23.8 °C 61.8 °F /  16.6 °C 29.67in /  1004.6hPa Calm   3.0mph /  4.8km/h 64% 0.00in /  0mm
01:19 74.6 °F /  23.7 °C 61.2 °F /  16.2 °C 29.67in /  1004.6hPa Calm   3.0mph /  4.8km/h 63% 0.00in /  0mm
01:24 74.4 °F /  23.6 °C 61.9 °F /  16.6 °C 29.67in /  1004.6hPa Calm   3.0mph /  4.8km/h 65% 0.00in /  0mm
01:29 73.9 °F /  23.3 °C 61.4 °F /  16.3 °C 29.67in /  1004.6hPa Calm   2.0mph /  3.2km/h 65% 0.00in /  0mm
01:34 73.6 °F /  23.1 °C 61.6 °F /  16.4 °C 29.67in /  1004.6hPa Calm   2.0mph /  3.2km/h 66% 0.00in /  0mm
01:39 73.2 °F /  22.9 °C 61.6 °F /  16.4 °C 29.67in /  1004.6hPa Calm   2.0mph /  3.2km/h 67% 0.00in /  0mm
01:44 72.7 °F /  22.6 °C 61.5 °F /  16.4 °C 29.67in /  1004.6hPa Calm   1.0mph /  1.6km/h 68% 0.00in /  0mm
01:49 72.1 °F /  22.3 °C 61.4 °F /  16.3 °C 29.67in /  1004.6hPa Calm     69% 0.00in /  0mm
01:54 71.5 °F /  21.9 °C 60.8 °F /  16 °C 29.67in /  1004.6hPa Calm   1.0mph /  1.6km/h 69% 0.00in /  0mm
01:59 71.3 °F /  21.8 °C 61.4 °F /  16.3 °C 29.67in /  1004.6hPa Calm   1.0mph /  1.6km/h 71% 0.00in /  0mm
02:04 71.2 °F /  21.8 °C 60.9 °F /  16.1 °C 29.66in /  1004.3hPa Calm   1.0mph /  1.6km/h 70% 0.00in /  0mm
02:09 71.0 °F /  21.7 °C 61.5 °F /  16.4 °C 29.66in /  1004.3hPa Calm   1.0mph /  1.6km/h 72% 0.00in /  0mm
02:14 70.6 °F /  21.4 °C 61.1 °F /  16.2 °C 29.66in /  1004.3hPa Calm   1.0mph /  1.6km/h 72% 0.00in /  0mm
02:19 70.4 °F /  21.3 °C 61.3 °F /  16.3 °C 29.66in /  1004.3hPa Calm   1.0mph /  1.6km/h 73% 0.00in /  0mm
02:25 70.1 °F /  21.2 °C 61.1 °F /  16.2 °C 29.67in /  1004.6hPa Calm   1.0mph /  1.6km/h 73% 0.00in /  0mm
02:34 69.4 °F /  20.8 °C 60.8 °F /  16 °C 29.66in /  1004.3hPa Calm   2.0mph /  3.2km/h 74% 0.00in /  0mm
02:39 69.5 °F /  20.8 °C 61.2 °F /  16.2 °C 29.66in /  1004.3hPa Calm   2.0mph /  3.2km/h 75% 0.00in /  0mm
02:44 69.4 °F /  20.8 °C 61.1 °F /  16.2 °C 29.67in /  1004.6hPa Calm     75% 0.00in /  0mm
02:49 69.1 °F /  20.6 °C 62.0 °F /  16.7 °C 29.67in /  1004.6hPa Calm   1.0mph /  1.6km/h 78% 0.00in /  0mm
02:54 68.8 °F /  20.4 °C 61.3 °F /  16.3 °C 29.67in /  1004.6hPa Calm   1.0mph /  1.6km/h 77% 0.00in /  0mm
02:59 68.9 °F /  20.5 °C 61.0 °F /  16.1 °C 29.67in /  1004.6hPa Calm   1.0mph /  1.6km/h 76% 0.00in /  0mm
03:04 69.0 °F /  20.6 °C 61.1 °F /  16.2 °C 29.67in /  1004.6hPa Calm   4.0mph /  6.4km/h 76% 0.00in /  0mm
03:09 69.0 °F /  20.6 °C 61.1 °F /  16.2 °C 29.67in /  1004.6hPa Calm   4.0mph /  6.4km/h 76% 0.00in /  0mm
03:15 69.1 °F /  20.6 °C 61.2 °F /  16.2 °C 29.67in /  1004.6hPa Calm     76% 0.00in /  0mm
03:24 70.0 °F /  21.1 °C 61.3 °F /  16.3 °C 29.67in /  1004.6hPa Calm   3.0mph /  4.8km/h 74% 0.00in /  0mm
03:29 70.4 °F /  21.3 °C 61.0 °F /  16.1 °C 29.67in /  1004.6hPa Calm   3.0mph /  4.8km/h 72% 0.00in /  0mm
03:34 71.1 °F /  21.7 °C 61.2 °F /  16.2 °C 29.67in /  1004.6hPa Calm   5.0mph /  8km/h 71% 0.00in /  0mm
03:39 71.7 °F /  22.1 °C 61.0 °F /  16.1 °C 29.67in /  1004.6hPa SSW 2.0mph /  3.2km/h 5.0mph /  8km/h 69% 0.00in /  0mm
03:44 71.9 °F /  22.2 °C 61.2 °F /  16.2 °C 29.67in /  1004.6hPa Calm   5.0mph /  8km/h 69% 0.00in /  0mm
03:49 72.0 °F /  22.2 °C 61.3 °F /  16.3 °C 29.67in /  1004.6hPa Calm   1.0mph /  1.6km/h 69% 0.00in /  0mm
03:54 71.8 °F /  22.1 °C 61.1 °F /  16.2 °C 29.67in /  1004.6hPa Calm   4.0mph /  6.4km/h 69% 0.00in /  0mm
03:59 71.5 °F /  21.9 °C 61.2 °F /  16.2 °C 29.66in /  1004.3hPa Calm   6.0mph /  9.7km/h 70% 0.00in /  0mm
04:04 71.2 °F /  21.8 °C 61.3 °F /  16.3 °C 29.66in /  1004.3hPa Calm   6.0mph /  9.7km/h 71% 0.00in /  0mm
04:09 70.8 °F /  21.6 °C 61.3 °F /  16.3 °C 29.67in /  1004.6hPa Calm     72% 0.00in /  0mm
04:14 70.3 °F /  21.3 °C 60.9 °F /  16.1 °C 29.67in /  1004.6hPa Calm   1.0mph /  1.6km/h 72% 0.00in /  0mm
04:19 70.0 °F /  21.1 °C 61.0 °F /  16.1 °C 29.67in /  1004.6hPa Calm   1.0mph /  1.6km/h 73% 0.00in /  0mm
04:24 69.6 °F /  20.9 °C 60.6 °F /  15.9 °C 29.67in /  1004.6hPa Calm   5.0mph /  8km/h 73% 0.00in /  0mm
04:29 69.5 °F /  20.8 °C 60.5 °F /  15.8 °C 29.67in /  1004.6hPa Calm   5.0mph /  8km/h 73% 0.00in /  0mm
04:34 69.6 °F /  20.9 °C 61.0 °F /  16.1 °C 29.67in /  1004.6hPa WSW 1.0mph /  1.6km/h 4.0mph /  6.4km/h 74% 0.00in /  0mm
04:39 69.9 °F /  21.1 °C 60.9 °F /  16.1 °C 29.67in /  1004.6hPa Calm   5.0mph /  8km/h 73% 0.00in /  0mm
04:44 70.2 °F /  21.2 °C 61.1 °F /  16.2 °C 29.67in /  1004.6hPa Calm   5.0mph /  8km/h 73% 0.00in /  0mm
04:49 70.3 °F /  21.3 °C 60.9 °F /  16.1 °C 29.67in /  1004.6hPa Calm   1.0mph /  1.6km/h 72% 0.00in /  0mm
04:54 70.1 °F /  21.2 °C 61.1 °F /  16.2 °C 29.67in /  1004.6hPa Calm     73% 0.00in /  0mm
04:59 69.8 °F /  21 °C 61.1 °F /  16.2 °C 29.67in /  1004.6hPa Calm     74% 0.00in /  0mm
05:04 69.4 °F /  20.8 °C 60.8 °F /  16 °C 29.68in /  1005hPa Calm     74% 0.00in /  0mm
05:09 69.0 °F /  20.6 °C 60.8 °F /  16 °C 29.67in /  1004.6hPa Calm   1.0mph /  1.6km/h 75% 0.00in /  0mm
05:14 68.9 °F /  20.5 °C 60.7 °F /  15.9 °C 29.67in /  1004.6hPa Calm   1.0mph /  1.6km/h 75% 0.00in /  0mm
05:19 68.7 °F /  20.4 °C 60.8 °F /  16 °C 29.68in /  1005hPa Calm   1.0mph /  1.6km/h 76% 0.00in /  0mm
05:24 68.6 °F /  20.3 °C 60.7 °F /  15.9 °C 29.68in /  1005hPa WSW 1.0mph /  1.6km/h 4.0mph /  6.4km/h 76% 0.00in /  0mm
05:29 68.9 °F /  20.5 °C 61.0 °F /  16.1 °C 29.68in /  1005hPa West 2.0mph /  3.2km/h 6.0mph /  9.7km/h 76% 0.00in /  0mm
05:34 69.7 °F /  20.9 °C 61.1 °F /  16.2 °C 29.68in /  1005hPa West 2.0mph /  3.2km/h 7.0mph /  11.3km/h 74% 0.00in /  0mm
05:39 70.5 °F /  21.4 °C 61.4 °F /  16.3 °C 29.68in /  1005hPa West 1.0mph /  1.6km/h 8.0mph /  12.9km/h 73% 0.00in /  0mm
05:44 71.1 °F /  21.7 °C 61.6 °F /  16.4 °C 29.68in /  1005hPa Calm   8.0mph /  12.9km/h 72% 0.00in /  0mm
05:49 71.7 °F /  22.1 °C 61.8 °F /  16.6 °C 29.68in /  1005hPa Calm   10.0mph /  16.1km/h 71% 0.00in /  0mm
05:54 72.0 °F /  22.2 °C 61.7 °F /  16.5 °C 29.69in /  1005.3hPa West 4.0mph /  6.4km/h 10.0mph /  16.1km/h 70% 0.00in /  0mm
05:59 72.5 °F /  22.5 °C 61.8 °F /  16.6 °C 29.69in /  1005.3hPa West 4.0mph /  6.4km/h 14.0mph /  22.5km/h 69% 0.00in /  0mm
06:04 72.7 °F /  22.6 °C 62.0 °F /  16.7 °C 29.69in /  1005.3hPa West 6.0mph /  9.7km/h 15.0mph /  24.1km/h 69% 0.00in /  0mm
06:09 72.8 °F /  22.7 °C 62.0 °F /  16.7 °C 29.70in /  1005.6hPa WNW 6.0mph /  9.7km/h 15.0mph /  24.1km/h 69% 0.00in /  0mm
06:14 72.8 °F /  22.7 °C 62.5 °F /  16.9 °C 29.70in /  1005.6hPa WNW 2.0mph /  3.2km/h 11.0mph /  17.7km/h 70% 0.00in /  0mm
06:19 72.7 °F /  22.6 °C 62.0 °F /  16.7 °C 29.70in /  1005.6hPa WNW 5.0mph /  8km/h 11.0mph /  17.7km/h 69% 0.00in /  0mm
06:24 72.7 °F /  22.6 °C 62.4 °F /  16.9 °C 29.70in /  1005.6hPa WNW 4.0mph /  6.4km/h 11.0mph /  17.7km/h 70% 0.00in /  0mm
06:29 72.6 °F /  22.6 °C 62.3 °F /  16.8 °C 29.70in /  1005.6hPa WNW 3.0mph /  4.8km/h 11.0mph /  17.7km/h 70% 0.00in /  0mm
06:34 72.4 °F /  22.4 °C 62.1 °F /  16.7 °C 29.70in /  1005.6hPa WNW 3.0mph /  4.8km/h 7.0mph /  11.3km/h 70% 0.00in /  0mm
06:39 72.2 °F /  22.3 °C 62.3 °F /  16.8 °C 29.70in /  1005.6hPa NW 3.0mph /  4.8km/h 7.0mph /  11.3km/h 71% 0.00in /  0mm
06:44 71.9 °F /  22.2 °C 62.8 °F /  17.1 °C 29.70in /  1005.6hPa Calm   5.0mph /  8km/h 73% 0.00in /  0mm
06:49 71.3 °F /  21.8 °C 62.6 °F /  17 °C 29.71in /  1006hPa West 2.0mph /  3.2km/h 5.0mph /  8km/h 74% 0.00in /  0mm
06:54 71.2 °F /  21.8 °C 62.1 °F /  16.7 °C 29.71in /  1006hPa WSW 3.0mph /  4.8km/h 7.0mph /  11.3km/h 73% 0.00in /  0mm
06:59 71.7 °F /  22.1 °C 62.2 °F /  16.8 °C 29.71in /  1006hPa West 3.0mph /  4.8km/h 8.0mph /  12.9km/h 72% 0.00in /  0mm
07:04 72.2 °F /  22.3 °C 63.1 °F /  17.3 °C 29.71in /  1006hPa Calm   8.0mph /  12.9km/h 73% 0.00in /  0mm
07:09 72.4 °F /  22.4 °C 62.9 °F /  17.2 °C 29.72in /  1006.3hPa West 2.0mph /  3.2km/h 7.0mph /  11.3km/h 72% 0.00in /  0mm
07:14 72.6 °F /  22.6 °C 63.1 °F /  17.3 °C 29.72in /  1006.3hPa West 1.0mph /  1.6km/h 8.0mph /  12.9km/h 72% 0.00in /  0mm
07:19 72.9 °F /  22.7 °C 63.0 °F /  17.2 °C 29.72in /  1006.3hPa WNW 3.0mph /  4.8km/h 8.0mph /  12.9km/h 71% 0.00in /  0mm
07:24 73.1 °F /  22.8 °C 63.5 °F /  17.5 °C 29.72in /  1006.3hPa WNW 5.0mph /  8km/h 11.0mph /  17.7km/h 72% 0.00in /  0mm
07:29 73.4 °F /  23 °C 63.4 °F /  17.4 °C 29.72in /  1006.3hPa NW 4.0mph /  6.4km/h 11.0mph /  17.7km/h 71% 0.00in /  0mm
07:34 73.6 °F /  23.1 °C 64.0 °F /  17.8 °C 29.72in /  1006.3hPa NW 3.0mph /  4.8km/h 9.0mph /  14.5km/h 72% 0.00in /  0mm
07:39 73.3 °F /  22.9 °C 63.3 °F /  17.4 °C 29.72in /  1006.3hPa WNW 3.0mph /  4.8km/h 11.0mph /  17.7km/h 71% 0.00in /  0mm
07:44 72.9 °F /  22.7 °C 63.4 °F /  17.4 °C 29.72in /  1006.3hPa WNW 3.0mph /  4.8km/h 11.0mph /  17.7km/h 72% 0.00in /  0mm
07:49 72.4 °F /  22.4 °C 62.9 °F /  17.2 °C 29.72in /  1006.3hPa WNW 3.0mph /  4.8km/h 12.0mph /  19.3km/h 72% 0.00in /  0mm
07:54 72.2 °F /  22.3 °C 62.7 °F /  17.1 °C 29.72in /  1006.3hPa West 3.0mph /  4.8km/h 12.0mph /  19.3km/h 72% 0.00in /  0mm
07:59 72.4 °F /  22.4 °C 63.3 °F /  17.4 °C 29.72in /  1006.3hPa WNW 3.0mph /  4.8km/h 10.0mph /  16.1km/h 73% 0.00in /  0mm
08:04 73.2 °F /  22.9 °C 64.4 °F /  18 °C 29.72in /  1006.3hPa Calm   8.0mph /  12.9km/h 74% 0.00in /  0mm
08:09 74.0 °F /  23.3 °C 64.4 °F /  18 °C 29.72in /  1006.3hPa WNW 3.0mph /  4.8km/h 8.0mph /  12.9km/h 72% 0.00in /  0mm
08:14 74.6 °F /  23.7 °C 64.6 °F /  18.1 °C 29.72in /  1006.3hPa WNW 6.0mph /  9.7km/h 12.0mph /  19.3km/h 71% 0.00in /  0mm
08:19 75.1 °F /  23.9 °C 65.5 °F /  18.6 °C 29.72in /  1006.3hPa WNW 1.0mph /  1.6km/h 12.0mph /  19.3km/h 72% 0.00in /  0mm
08:24 75.0 °F /  23.9 °C 64.2 °F /  17.9 °C 29.72in /  1006.3hPa WNW 3.0mph /  4.8km/h 10.0mph /  16.1km/h 69% 0.00in /  0mm
08:29 74.4 °F /  23.6 °C 63.6 °F /  17.6 °C 29.72in /  1006.3hPa WNW 5.0mph /  8km/h 10.0mph /  16.1km/h 69% 0.00in /  0mm
08:34 73.6 °F /  23.1 °C 63.2 °F /  17.3 °C 29.72in /  1006.3hPa WNW 7.0mph /  11.3km/h 13.0mph /  20.9km/h 70% 0.00in /  0mm
08:39 73.2 °F /  22.9 °C 64.0 °F /  17.8 °C 29.72in /  1006.3hPa WNW 2.0mph /  3.2km/h 13.0mph /  20.9km/h 73% 0.00in /  0mm
08:44 73.5 °F /  23.1 °C 64.3 °F /  17.9 °C 29.72in /  1006.3hPa WNW 6.0mph /  9.7km/h 12.0mph /  19.3km/h 73% 0.00in /  0mm
08:49 73.7 °F /  23.2 °C 63.7 °F /  17.6 °C 29.72in /  1006.3hPa WNW 5.0mph /  8km/h 9.0mph /  14.5km/h 71% 0.00in /  0mm
08:54 73.7 °F /  23.2 °C 64.5 °F /  18.1 °C 29.72in /  1006.3hPa WNW 4.0mph /  6.4km/h 9.0mph /  14.5km/h 73% 0.00in /  0mm
08:59 74.0 °F /  23.3 °C 64.4 °F /  18 °C 29.73in /  1006.7hPa NW 5.0mph /  8km/h 10.0mph /  16.1km/h 72% 0.00in /  0mm
09:40 74.2 °F /  23.4 °C 64.2 °F /  17.9 °C 29.73in /  1006.7hPa NW 4.0mph /  6.4km/h 13.0mph /  20.9km/h 71% 0.00in /  0mm
09:50 73.5 °F /  23.1 °C 64.3 °F /  17.9 °C 29.73in /  1006.7hPa NW 3.0mph /  4.8km/h 10.0mph /  16.1km/h 73% 0.00in /  0mm
09:55 73.5 °F /  23.1 °C 64.7 °F /  18.2 °C 29.73in /  1006.7hPa West 1.0mph /  1.6km/h 9.0mph /  14.5km/h 74% 0.00in /  0mm
11:00 77.1 °F /  25.1 °C 65.3 °F /  18.5 °C 29.74in /  1007hPa West 4.0mph /  6.4km/h 11.0mph /  17.7km/h 67% 0.00in /  0mm
11:14 77.3 °F /  25.2 °C 65.5 °F /  18.6 °C 29.74in /  1007hPa NW 3.0mph /  4.8km/h 12.0mph /  19.3km/h 67% 0.00in /  0mm
11:19 77.2 °F /  25.1 °C 65.4 °F /  18.6 °C 29.74in /  1007hPa NW 2.0mph /  3.2km/h 10.0mph /  16.1km/h 67% 0.00in /  0mm
11:24 77.4 °F /  25.2 °C 64.3 °F /  17.9 °C 29.74in /  1007hPa NW 4.0mph /  6.4km/h 11.0mph /  17.7km/h 64% 0.00in /  0mm
11:29 77.1 °F /  25.1 °C 63.6 °F /  17.6 °C 29.74in /  1007hPa WNW 2.0mph /  3.2km/h 11.0mph /  17.7km/h 63% 0.00in /  0mm
11:35 77.4 °F /  25.2 °C 64.3 °F /  17.9 °C 29.75in /  1007.3hPa WNW 3.0mph /  4.8km/h 10.0mph /  16.1km/h 64% 0.00in /  0mm
11:40 77.7 °F /  25.4 °C 64.1 °F /  17.8 °C 29.75in /  1007.3hPa WNW 4.0mph /  6.4km/h 7.0mph /  11.3km/h 63% 0.00in /  0mm
11:49 78.5 °F /  25.8 °C 64.4 °F /  18 °C 29.75in /  1007.3hPa NW 7.0mph /  11.3km/h 12.0mph /  19.3km/h 62% 0.00in /  0mm
11:54 78.5 °F /  25.8 °C 64.4 °F /  18 °C 29.75in /  1007.3hPa West 5.0mph /  8km/h 12.0mph /  19.3km/h 62% 0.00in /  0mm
11:59 77.5 °F /  25.3 °C 63.9 °F /  17.7 °C 29.75in /  1007.3hPa WNW 4.0mph /  6.4km/h 11.0mph /  17.7km/h 63% 0.00in /  0mm
12:04 76.8 °F /  24.9 °C 62.8 °F /  17.1 °C 29.75in /  1007.3hPa NW 4.0mph /  6.4km/h 10.0mph /  16.1km/h 62% 0.00in /  0mm
12:10 76.4 °F /  24.7 °C 62.4 °F /  16.9 °C 29.75in /  1007.3hPa WNW 1.0mph /  1.6km/h 8.0mph /  12.9km/h 62% 0.00in /  0mm
13:50 77.8 °F /  25.4 °C 61.9 °F /  16.6 °C 29.75in /  1007.3hPa WNW 5.0mph /  8km/h 12.0mph /  19.3km/h 58% 0.00in /  0mm
13:59 77.7 °F /  25.4 °C 61.8 °F /  16.6 °C 29.75in /  1007.3hPa NW 3.0mph /  4.8km/h 7.0mph /  11.3km/h 58% 0.00in /  0mm
14:29 75.5 °F /  24.2 °C 62.0 °F /  16.7 °C 29.75in /  1007.3hPa NW 2.0mph /  3.2km/h 8.0mph /  12.9km/h 63% 0.00in /  0mm
14:34 75.3 °F /  24.1 °C 62.7 °F /  17.1 °C 29.75in /  1007.3hPa Calm   6.0mph /  9.7km/h 65% 0.00in /  0mm
14:39 75.3 °F /  24.1 °C 62.7 °F /  17.1 °C 29.75in /  1007.3hPa WNW 1.0mph /  1.6km/h 4.0mph /  6.4km/h 65% 0.00in /  0mm
14:44 75.6 °F /  24.2 °C 63.5 °F /  17.5 °C 29.75in /  1007.3hPa NW 1.0mph /  1.6km/h 4.0mph /  6.4km/h 66% 0.00in /  0mm
14:49 76.1 °F /  24.5 °C 61.7 °F /  16.5 °C 29.74in /  1007hPa West 4.0mph /  6.4km/h 8.0mph /  12.9km/h 61% 0.00in /  0mm
14:54 76.1 °F /  24.5 °C 62.6 °F /  17 °C 29.74in /  1007hPa Calm   8.0mph /  12.9km/h 63% 0.00in /  0mm
14:59 76.4 °F /  24.7 °C 64.6 °F /  18.1 °C 29.74in /  1007hPa Calm   4.0mph /  6.4km/h 67% 0.00in /  0mm
15:04 77.0 °F /  25 °C 63.9 °F /  17.7 °C 29.74in /  1007hPa Calm   5.0mph /  8km/h 64% 0.00in /  0mm
15:09 77.5 °F /  25.3 °C 64.4 °F /  18 °C 29.74in /  1007hPa WNW 1.0mph /  1.6km/h 7.0mph /  11.3km/h 64% 0.00in /  0mm
15:14 78.0 °F /  25.6 °C 64.9 °F /  18.3 °C 29.74in /  1007hPa Calm   7.0mph /  11.3km/h 64% 0.00in /  0mm
15:19 78.7 °F /  25.9 °C 64.6 °F /  18.1 °C 29.74in /  1007hPa NW 2.0mph /  3.2km/h 6.0mph /  9.7km/h 62% 0.00in /  0mm
15:24 79.2 °F /  26.2 °C 63.7 °F /  17.6 °C 29.74in /  1007hPa NW 5.0mph /  8km/h 10.0mph /  16.1km/h 59% 0.00in /  0mm
15:29 78.9 °F /  26.1 °C 65.3 °F /  18.5 °C 29.74in /  1007hPa WNW 2.0mph /  3.2km/h 10.0mph /  16.1km/h 63% 0.00in /  0mm
15:34 78.7 °F /  25.9 °C 62.7 °F /  17.1 °C 29.74in /  1007hPa WNW 5.0mph /  8km/h 11.0mph /  17.7km/h 58% 0.00in /  0mm
15:39 78.8 °F /  26 °C 64.7 °F /  18.2 °C 29.74in /  1007hPa WNW 3.0mph /  4.8km/h 11.0mph /  17.7km/h 62% 0.00in /  0mm
15:44 78.1 °F /  25.6 °C 62.6 °F /  17 °C 29.74in /  1007hPa NW 4.0mph /  6.4km/h 11.0mph /  17.7km/h 59% 0.00in /  0mm
15:49 77.4 °F /  25.2 °C 62.9 °F /  17.2 °C 29.73in /  1006.7hPa WNW 4.0mph /  6.4km/h 11.0mph /  17.7km/h 61% 0.00in /  0mm
15:54 77.0 °F /  25 °C 62.5 °F /  16.9 °C 29.73in /  1006.7hPa NW 3.0mph /  4.8km/h 9.0mph /  14.5km/h 61% 0.00in /  0mm
15:59 77.0 °F /  25 °C 64.3 °F /  17.9 °C 29.73in /  1006.7hPa WNW 2.0mph /  3.2km/h 9.0mph /  14.5km/h 65% 0.00in /  0mm
16:04 77.8 °F /  25.4 °C 63.8 °F /  17.7 °C 29.73in /  1006.7hPa NW 2.0mph /  3.2km/h 9.0mph /  14.5km/h 62% 0.00in /  0mm
16:09 78.7 °F /  25.9 °C 63.7 °F /  17.6 °C 29.73in /  1006.7hPa NW 4.0mph /  6.4km/h 9.0mph /  14.5km/h 60% 0.00in /  0mm
16:14 79.0 °F /  26.1 °C 66.7 °F /  19.3 °C 29.73in /  1006.7hPa WNW 1.0mph /  1.6km/h 8.0mph /  12.9km/h 66% 0.00in /  0mm
16:19 79.5 °F /  26.4 °C 64.9 °F /  18.3 °C 29.73in /  1006.7hPa West 1.0mph /  1.6km/h 7.0mph /  11.3km/h 61% 0.00in /  0mm
16:24 79.7 °F /  26.5 °C 63.1 °F /  17.3 °C 29.73in /  1006.7hPa WNW 5.0mph /  8km/h 8.0mph /  12.9km/h 57% 0.00in /  0mm
16:29 79.6 °F /  26.4 °C 64.0 °F /  17.8 °C 29.73in /  1006.7hPa West 2.0mph /  3.2km/h 8.0mph /  12.9km/h 59% 0.00in /  0mm
16:34 79.6 °F /  26.4 °C 63.0 °F /  17.2 °C 29.73in /  1006.7hPa Calm   7.0mph /  11.3km/h 57% 0.00in /  0mm
16:39 79.5 °F /  26.4 °C 62.5 °F /  16.9 °C 29.73in /  1006.7hPa West 1.0mph /  1.6km/h 7.0mph /  11.3km/h 56% 0.00in /  0mm
16:44 79.3 °F /  26.3 °C 62.8 °F /  17.1 °C 29.73in /  1006.7hPa NW 1.0mph /  1.6km/h 8.0mph /  12.9km/h 57% 0.00in /  0mm
16:49 79.3 °F /  26.3 °C 61.8 °F /  16.6 °C 29.73in /  1006.7hPa Calm   8.0mph /  12.9km/h 55% 0.00in /  0mm
16:54 79.9 °F /  26.6 °C 61.3 °F /  16.3 °C 29.73in /  1006.7hPa Calm   6.0mph /  9.7km/h 53% 0.00in /  0mm
16:59 80.5 °F /  26.9 °C 62.3 °F /  16.8 °C 29.73in /  1006.7hPa Calm   5.0mph /  8km/h 54% 0.00in /  0mm
17:04 80.6 °F /  27 °C 61.4 °F /  16.3 °C 29.72in /  1006.3hPa NW 1.0mph /  1.6km/h 4.0mph /  6.4km/h 52% 0.00in /  0mm
17:09 80.3 °F /  26.8 °C 61.6 °F /  16.4 °C 29.72in /  1006.3hPa Calm   5.0mph /  8km/h 53% 0.00in /  0mm
17:14 80.3 °F /  26.8 °C 62.2 °F /  16.8 °C 29.72in /  1006.3hPa Calm   5.0mph /  8km/h 54% 0.00in /  0mm
17:19 80.6 °F /  27 °C 61.4 °F /  16.3 °C 29.72in /  1006.3hPa WNW 2.0mph /  3.2km/h 6.0mph /  9.7km/h 52% 0.00in /  0mm
17:24 80.5 °F /  26.9 °C 62.3 °F /  16.8 °C 29.72in /  1006.3hPa WNW 1.0mph /  1.6km/h 6.0mph /  9.7km/h 54% 0.00in /  0mm
17:29 80.3 °F /  26.8 °C 60.5 °F /  15.8 °C 29.72in /  1006.3hPa WNW 3.0mph /  4.8km/h 7.0mph /  11.3km/h 51% 0.00in /  0mm
17:34 80.0 °F /  26.7 °C 62.4 °F /  16.9 °C 29.72in /  1006.3hPa West 2.0mph /  3.2km/h 7.0mph /  11.3km/h 55% 0.00in /  0mm
17:39 80.0 °F /  26.7 °C 63.9 °F /  17.7 °C 29.72in /  1006.3hPa Calm   7.0mph /  11.3km/h 58% 0.00in /  0mm
17:44 80.4 °F /  26.9 °C 63.3 °F /  17.4 °C 29.72in /  1006.3hPa Calm   4.0mph /  6.4km/h 56% 0.00in /  0mm
17:49 80.8 °F /  27.1 °C 62.1 °F /  16.7 °C 29.72in /  1006.3hPa Calm   6.0mph /  9.7km/h 53% 0.00in /  0mm
17:54 80.3 °F /  26.8 °C 61.1 °F /  16.2 °C 29.72in /  1006.3hPa West 3.0mph /  4.8km/h 6.0mph /  9.7km/h 52% 0.00in /  0mm
17:59 80.1 °F /  26.7 °C 62.0 °F /  16.7 °C 29.72in /  1006.3hPa Calm   6.0mph /  9.7km/h 54% 0.00in /  0mm
18:04 80.4 °F /  26.9 °C 62.3 °F /  16.8 °C 29.72in /  1006.3hPa Calm   1.0mph /  1.6km/h 54% 0.00in /  0mm
18:09 80.2 °F /  26.8 °C 60.5 °F /  15.8 °C 29.72in /  1006.3hPa NW 3.0mph /  4.8km/h 5.0mph /  8km/h 51% 0.00in /  0mm
18:14 79.9 °F /  26.6 °C 61.3 °F /  16.3 °C 29.72in /  1006.3hPa Calm   6.0mph /  9.7km/h 53% 0.00in /  0mm
18:19 79.7 °F /  26.5 °C 60.0 °F /  15.6 °C 29.72in /  1006.3hPa Calm   6.0mph /  9.7km/h 51% 0.00in /  0mm
18:24 79.4 °F /  26.3 °C 62.4 °F /  16.9 °C 29.72in /  1006.3hPa Calm   1.0mph /  1.6km/h 56% 0.00in /  0mm
18:29 78.7 °F /  25.9 °C 61.2 °F /  16.2 °C 29.72in /  1006.3hPa Calm   3.0mph /  4.8km/h 55% 0.00in /  0mm
18:34 78.4 °F /  25.8 °C 61.4 °F /  16.3 °C 29.72in /  1006.3hPa Calm   3.0mph /  4.8km/h 56% 0.00in /  0mm
19:04 78.4 °F /  25.8 °C 64.8 °F /  18.2 °C 29.72in /  1006.3hPa Calm     63% 0.00in /  0mm
19:24 77.0 °F /  25 °C 65.6 °F /  18.7 °C 29.73in /  1006.7hPa Calm     68% 0.00in /  0mm
19:29 77.2 °F /  25.1 °C 64.5 °F /  18.1 °C 29.73in /  1006.7hPa Calm     65% 0.00in /  0mm
19:34 77.5 °F /  25.3 °C 65.7 °F /  18.7 °C 29.73in /  1006.7hPa Calm     67% 0.00in /  0mm
19:39 77.7 °F /  25.4 °C 65.4 °F /  18.6 °C 29.73in /  1006.7hPa Calm     66% 0.00in /  0mm
19:44 77.8 °F /  25.4 °C 65.1 °F /  18.4 °C 29.73in /  1006.7hPa Calm     65% 0.00in /  0mm
19:49 77.8 °F /  25.4 °C 66.0 °F /  18.9 °C 29.73in /  1006.7hPa Calm     67% 0.00in /  0mm
19:54 78.0 °F /  25.6 °C 67.0 °F /  19.4 °C 29.73in /  1006.7hPa Calm     69% 0.00in /  0mm
19:59 78.0 °F /  25.6 °C 65.7 °F /  18.7 °C 29.73in /  1006.7hPa Calm     66% 0.00in /  0mm
20:04 76.9 °F /  24.9 °C 65.1 °F /  18.4 °C 29.73in /  1006.7hPa Calm     67% 0.00in /  0mm
20:09 75.6 °F /  24.2 °C 64.3 °F /  17.9 °C 29.73in /  1006.7hPa Calm     68% 0.00in /  0mm
20:14 74.2 °F /  23.4 °C 63.0 °F /  17.2 °C 29.73in /  1006.7hPa Calm     68% 0.00in /  0mm
20:19 72.3 °F /  22.4 °C 61.6 °F /  16.4 °C 29.74in /  1007hPa Calm     69% 0.00in /  0mm
20:24 71.2 °F /  21.8 °C 61.7 °F /  16.5 °C 29.74in /  1007hPa Calm     72% 0.00in /  0mm
20:29 69.8 °F /  21 °C 61.1 °F /  16.2 °C 29.74in /  1007hPa Calm     74% 0.00in /  0mm
20:34 68.8 °F /  20.4 °C 60.2 °F /  15.7 °C 29.74in /  1007hPa Calm     74% 0.00in /  0mm
20:39 67.9 °F /  19.9 °C 60.1 °F /  15.6 °C 29.74in /  1007hPa Calm     76% 0.00in /  0mm
20:44 67.0 °F /  19.4 °C 59.6 °F /  15.3 °C 29.74in /  1007hPa Calm     77% 0.00in /  0mm
20:49 66.3 °F /  19.1 °C 59.2 °F /  15.1 °C 29.74in /  1007hPa Calm     78% 0.00in /  0mm
20:54 65.6 °F /  18.7 °C 58.9 °F /  14.9 °C 29.75in /  1007.3hPa Calm     79% 0.00in /  0mm
20:59 65.0 °F /  18.3 °C 58.7 °F /  14.8 °C 29.75in /  1007.3hPa Calm     80% 0.00in /  0mm
21:04 64.8 °F /  18.2 °C 59.2 °F /  15.1 °C 29.75in /  1007.3hPa Calm     82% 0.00in /  0mm
21:09 64.8 °F /  18.2 °C 59.9 °F /  15.5 °C 29.75in /  1007.3hPa Calm     84% 0.00in /  0mm
21:14 64.8 °F /  18.2 °C 60.2 °F /  15.7 °C 29.75in /  1007.3hPa Calm     85% 0.00in /  0mm
21:19 64.9 °F /  18.3 °C 60.3 °F /  15.7 °C 29.76in /  1007.7hPa Calm     85% 0.00in /  0mm
21:24 64.8 °F /  18.2 °C 60.2 °F /  15.7 °C 29.76in /  1007.7hPa Calm     85% 0.00in /  0mm
21:29 64.8 °F /  18.2 °C 59.9 °F /  15.5 °C 29.76in /  1007.7hPa Calm     84% 0.00in /  0mm
21:34 64.9 °F /  18.3 °C 59.3 °F /  15.2 °C 29.76in /  1007.7hPa Calm     82% 0.00in /  0mm
21:39 65.2 °F /  18.4 °C 59.9 °F /  15.5 °C 29.76in /  1007.7hPa Calm     83% 0.00in /  0mm
21:44 65.3 °F /  18.5 °C 59.7 °F /  15.4 °C 29.76in /  1007.7hPa Calm     82% 0.00in /  0mm
21:49 65.3 °F /  18.5 °C 59.3 °F /  15.2 °C 29.76in /  1007.7hPa Calm     81% 0.00in /  0mm
21:54 65.7 °F /  18.7 °C 59.0 °F /  15 °C 29.76in /  1007.7hPa NW 8.0mph /  12.9km/h 14.0mph /  22.5km/h 79% 0.00in /  0mm
21:59 67.2 °F /  19.6 °C 59.8 °F /  15.4 °C 29.76in /  1007.7hPa NW 5.0mph /  8km/h 14.0mph /  22.5km/h 77% 0.00in /  0mm
22:04 68.0 °F /  20 °C 59.8 °F /  15.4 °C 29.77in /  1008hPa NW 3.0mph /  4.8km/h 11.0mph /  17.7km/h 75% 0.00in /  0mm
22:09 68.0 °F /  20 °C 59.4 °F /  15.2 °C 29.77in /  1008hPa WNW 3.0mph /  4.8km/h 9.0mph /  14.5km/h 74% 0.00in /  0mm
22:14 67.8 °F /  19.9 °C 58.8 °F /  14.9 °C 29.76in /  1007.7hPa WNW 3.0mph /  4.8km/h 9.0mph /  14.5km/h 73% 0.00in /  0mm
22:19 67.6 °F /  19.8 °C 58.3 °F /  14.6 °C 29.76in /  1007.7hPa NW 3.0mph /  4.8km/h 9.0mph /  14.5km/h 72% 0.00in /  0mm
22:24 67.4 °F /  19.7 °C 58.1 °F /  14.5 °C 29.76in /  1007.7hPa WNW 1.0mph /  1.6km/h 9.0mph /  14.5km/h 72% 0.00in /  0mm
22:29 67.1 °F /  19.5 °C 58.2 °F /  14.6 °C 29.76in /  1007.7hPa WNW 2.0mph /  3.2km/h 4.0mph /  6.4km/h 73% 0.00in /  0mm
22:34 66.9 °F /  19.4 °C 58.0 °F /  14.4 °C 29.76in /  1007.7hPa West 2.0mph /  3.2km/h 5.0mph /  8km/h 73% 0.00in /  0mm
22:39 66.7 °F /  19.3 °C 57.8 °F /  14.3 °C 29.76in /  1007.7hPa West 1.0mph /  1.6km/h 6.0mph /  9.7km/h 73% 0.00in /  0mm
22:44 66.7 °F /  19.3 °C 57.4 °F /  14.1 °C 29.76in /  1007.7hPa WNW 1.0mph /  1.6km/h 6.0mph /  9.7km/h 72% 0.00in /  0mm
22:49 66.7 °F /  19.3 °C 57.4 °F /  14.1 °C 29.76in /  1007.7hPa WNW 3.0mph /  4.8km/h 6.0mph /  9.7km/h 72% 0.00in /  0mm
22:54 66.8 °F /  19.3 °C 57.5 °F /  14.2 °C 29.77in /  1008hPa WNW 3.0mph /  4.8km/h 6.0mph /  9.7km/h 72% 0.00in /  0mm
22:59 67.1 °F /  19.5 °C 57.4 °F /  14.1 °C 29.77in /  1008hPa WNW 2.0mph /  3.2km/h 6.0mph /  9.7km/h 71% 0.00in /  0mm
23:04 67.2 °F /  19.6 °C 57.5 °F /  14.2 °C 29.77in /  1008hPa Calm   5.0mph /  8km/h 71% 0.00in /  0mm
23:09 67.4 °F /  19.7 °C 57.7 °F /  14.3 °C 29.77in /  1008hPa Calm   5.0mph /  8km/h 71% 0.00in /  0mm
23:14 67.4 °F /  19.7 °C 57.7 °F /  14.3 °C 29.77in /  1008hPa Calm   5.0mph /  8km/h 71% 0.00in /  0mm
23:19 67.3 °F /  19.6 °C 57.6 °F /  14.2 °C 29.77in /  1008hPa Calm   3.0mph /  4.8km/h 71% 0.00in /  0mm
23:24 67.1 °F /  19.5 °C 57.4 °F /  14.1 °C 29.77in /  1008hPa Calm     71% 0.00in /  0mm
23:29 66.9 °F /  19.4 °C 58.0 °F /  14.4 °C 29.77in /  1008hPa Calm   1.0mph /  1.6km/h 73% 0.00in /  0mm
23:34 66.7 °F /  19.3 °C 57.4 °F /  14.1 °C 29.77in /  1008hPa Calm   1.0mph /  1.6km/h 72% 0.00in /  0mm
23:39 66.6 °F /  19.2 °C 57.3 °F /  14.1 °C 29.77in /  1008hPa Calm   1.0mph /  1.6km/h 72% 0.00in /  0mm
23:44 66.5 °F /  19.2 °C 57.6 °F /  14.2 °C 29.77in /  1008hPa Calm     73% 0.00in /  0mm
23:49 66.5 °F /  19.2 °C 58.0 °F /  14.4 °C 29.77in /  1008hPa Calm     74% 0.00in /  0mm
23:54 66.4 °F /  19.1 °C 57.5 °F /  14.2 °C 29.77in /  1008hPa Calm     73% 0.00in /  0mm
23:59 66.4 °F /  19.1 °C 57.5 °F /  14.2 °C 29.77in /  1008hPa Calm   1.0mph /  1.6km/h 73% 0.00in /  0mm
Westford Weather
Compliments of Weather Underground

 
 
Current Radar Loop:

Copyright © WestfordWeather.net 2007-2014. All rights reserved.